createdAt,value
2019-03-31T00:00:38.593Z,7.17
2019-03-31T00:03:06.457Z,8.50
2019-03-31T00:05:37.147Z,8.80
2019-03-31T00:08:02.038Z,8.53
2019-03-31T00:10:29.821Z,7.63
2019-03-31T00:12:57.625Z,6.90
2019-03-31T00:15:25.405Z,7.90
2019-03-31T00:17:53.198Z,7.37
2019-03-31T00:20:20.995Z,6.67
2019-03-31T00:22:48.810Z,7.23
2019-03-31T00:25:16.605Z,7.13
2019-03-31T00:27:44.408Z,6.43
2019-03-31T00:30:12.366Z,6.70
2019-03-31T00:32:40.174Z,7.90
2019-03-31T00:35:07.957Z,7.20
2019-03-31T00:37:35.758Z,7.03
2019-03-31T00:40:03.726Z,6.90
2019-03-31T00:42:31.529Z,6.17
2019-03-31T00:44:59.322Z,5.47
2019-03-31T00:47:27.128Z,6.23
2019-03-31T00:49:54.910Z,5.57
2019-03-31T00:52:22.743Z,5.60
2019-03-31T00:54:50.710Z,5.50
2019-03-31T00:57:18.602Z,6.00
2019-03-31T00:59:46.905Z,6.90
2019-03-31T01:02:16.001Z,7.50
2019-03-31T01:04:43.897Z,6.87
2019-03-31T01:07:11.747Z,7.03
2019-03-31T01:09:39.809Z,7.63
2019-03-31T01:12:07.661Z,6.77
2019-03-31T01:14:36.166Z,6.60
2019-03-31T01:17:04.625Z,7.53
2019-03-31T01:19:32.571Z,7.10
2019-03-31T01:22:00.598Z,7.27
2019-03-31T01:24:28.533Z,7.40
2019-03-31T01:26:56.340Z,8.10
2019-03-31T01:29:24.138Z,11.17
2019-03-31T01:31:51.930Z,8.83
2019-03-31T01:34:19.744Z,8.97
2019-03-31T01:36:47.522Z,11.97
2019-03-31T01:39:15.333Z,19.50
2019-03-31T01:41:46.101Z,8.47
2019-03-31T01:44:14.430Z,9.10
2019-03-31T01:46:42.802Z,7.07
2019-03-31T01:49:10.778Z,8.10
2019-03-31T01:51:38.684Z,8.50
2019-03-31T01:54:06.488Z,7.33
2019-03-31T01:56:34.276Z,6.60
2019-03-31T01:59:02.089Z,6.90
2019-03-31T02:01:29.868Z,6.30
2019-03-31T02:03:57.661Z,6.40
2019-03-31T02:06:25.437Z,6.83
2019-03-31T02:08:53.242Z,7.57
2019-03-31T02:11:21.035Z,6.80
2019-03-31T02:13:48.826Z,8.10
2019-03-31T02:16:16.643Z,7.80
2019-03-31T02:18:44.669Z,8.13
2019-03-31T02:21:12.724Z,7.80
2019-03-31T02:23:40.907Z,8.03
2019-03-31T02:26:08.770Z,7.40
2019-03-31T02:28:36.612Z,8.40
2019-03-31T02:31:04.590Z,7.10
2019-03-31T02:33:32.650Z,7.67
2019-03-31T02:36:00.551Z,8.67
2019-03-31T02:38:28.396Z,9.00
2019-03-31T02:40:56.208Z,7.73
2019-03-31T02:43:24.342Z,8.40
2019-03-31T02:45:52.172Z,8.43
2019-03-31T02:48:19.995Z,7.90
2019-03-31T02:50:49.183Z,7.97
2019-03-31T02:53:17.949Z,8.23
2019-03-31T02:55:46.570Z,8.70
2019-03-31T02:58:17.425Z,8.55
2019-03-31T03:00:47.952Z,8.90
2019-03-31T03:03:15.974Z,8.05
2019-03-31T03:05:44.180Z,7.40
2019-03-31T03:08:12.702Z,7.47
2019-03-31T03:10:40.577Z,7.40
2019-03-31T03:13:08.862Z,8.20
2019-03-31T03:15:43.171Z,8.18
2019-03-31T03:18:11.063Z,8.57
2019-03-31T03:20:38.947Z,8.20
2019-03-31T03:23:06.758Z,8.27
2019-03-31T03:25:34.549Z,8.90
2019-03-31T03:28:02.580Z,7.97
2019-03-31T03:30:30.549Z,8.70
2019-03-31T03:33:14.632Z,8.77
2019-03-31T03:35:26.166Z,8.90
2019-03-31T03:37:54.083Z,9.60
2019-03-31T03:40:21.906Z,8.83
2019-03-31T03:42:49.716Z,8.90
2019-03-31T03:45:17.589Z,7.80
2019-03-31T03:47:45.474Z,7.80
2019-03-31T03:50:13.408Z,8.50
2019-03-31T03:52:41.287Z,8.60
2019-03-31T03:55:09.213Z,8.57
2019-03-31T03:57:37.134Z,10.00
2019-03-31T04:00:05.468Z,8.75
2019-03-31T04:02:34.055Z,8.23
2019-03-31T04:05:02.157Z,8.27
2019-03-31T04:07:30.046Z,8.30
2019-03-31T04:09:59.016Z,8.87
2019-03-31T04:12:26.871Z,9.00
2019-03-31T04:14:54.774Z,8.17
2019-03-31T04:17:22.579Z,8.63
2019-03-31T04:19:50.426Z,9.50
2019-03-31T04:22:18.353Z,9.03
2019-03-31T04:24:46.208Z,10.00
2019-03-31T04:27:18.552Z,8.50
2019-03-31T04:29:42.046Z,9.20
2019-03-31T04:32:09.911Z,8.53
2019-03-31T04:34:37.895Z,7.37
2019-03-31T04:37:05.748Z,8.33
2019-03-31T04:39:33.601Z,8.97
2019-03-31T04:42:01.450Z,8.10
2019-03-31T04:44:29.274Z,8.60
2019-03-31T04:46:57.096Z,8.00
2019-03-31T04:49:24.944Z,8.57
2019-03-31T04:51:52.726Z,9.33
2019-03-31T04:54:20.550Z,7.70
2019-03-31T04:56:48.370Z,6.93
2019-03-31T04:59:16.212Z,7.60
2019-03-31T05:01:44.026Z,6.50
2019-03-31T05:04:11.844Z,7.60
2019-03-31T05:06:40.851Z,7.10
2019-03-31T05:09:08.595Z,6.90
2019-03-31T05:11:36.487Z,7.53
2019-03-31T05:14:04.285Z,7.17
2019-03-31T05:16:32.290Z,8.20
2019-03-31T05:19:00.102Z,7.43
2019-03-31T05:21:27.884Z,8.67
2019-03-31T05:23:55.684Z,8.93
2019-03-31T05:26:23.558Z,7.97
2019-03-31T05:28:52.170Z,8.33
2019-03-31T05:31:19.987Z,8.07
2019-03-31T05:33:48.198Z,7.70
2019-03-31T05:36:15.983Z,7.73
2019-03-31T05:38:43.793Z,7.77
2019-03-31T05:41:11.584Z,7.10
2019-03-31T05:43:39.378Z,7.83
2019-03-31T05:46:07.158Z,7.93
2019-03-31T05:48:34.955Z,7.20
2019-03-31T05:51:02.743Z,7.60
2019-03-31T05:53:30.542Z,8.33
2019-03-31T05:55:58.347Z,8.60
2019-03-31T05:58:26.139Z,7.57
2019-03-31T06:00:53.942Z,9.00
2019-03-31T06:03:21.721Z,7.47
2019-03-31T06:05:49.527Z,7.80
2019-03-31T06:08:17.357Z,7.80
2019-03-31T06:10:45.166Z,7.70
2019-03-31T06:13:12.954Z,8.13
2019-03-31T06:15:40.798Z,8.27
2019-03-31T06:18:08.679Z,8.80
2019-03-31T06:20:36.470Z,9.60
2019-03-31T06:23:04.312Z,9.00
2019-03-31T06:25:32.118Z,9.30
2019-03-31T06:28:00.490Z,9.07
2019-03-31T06:30:28.287Z,10.10
2019-03-31T06:32:56.070Z,9.83
2019-03-31T06:35:23.874Z,10.63
2019-03-31T06:37:51.686Z,9.67
2019-03-31T06:40:19.505Z,9.27
2019-03-31T06:42:47.410Z,11.07
2019-03-31T06:45:15.209Z,11.30
2019-03-31T06:47:42.986Z,10.90
2019-03-31T06:50:10.802Z,10.90
2019-03-31T06:52:38.582Z,10.03
2019-03-31T06:55:06.645Z,11.80
2019-03-31T06:57:34.434Z,11.10
2019-03-31T07:00:02.261Z,11.50
2019-03-31T07:02:30.069Z,11.40
2019-03-31T07:05:01.307Z,11.95
2019-03-31T07:07:25.674Z,12.73
2019-03-31T07:09:53.566Z,12.03
2019-03-31T07:15:02.733Z,11.93
2019-03-31T07:17:30.804Z,12.20
2019-03-31T07:19:58.634Z,12.40
2019-03-31T07:22:26.445Z,13.70
2019-03-31T07:24:54.251Z,12.70
2019-03-31T07:27:22.026Z,13.40
2019-03-31T07:29:49.834Z,13.27
2019-03-31T07:32:17.626Z,13.47
2019-03-31T07:34:45.435Z,14.13
2019-03-31T07:37:13.218Z,14.43
2019-03-31T07:39:41.502Z,14.73
2019-03-31T07:42:09.218Z,13.70
2019-03-31T07:44:36.866Z,13.20
2019-03-31T07:47:04.642Z,13.20
2019-03-31T07:49:32.494Z,12.93
2019-03-31T07:52:00.381Z,11.90
2019-03-31T07:54:28.105Z,11.60
2019-03-31T07:56:55.906Z,12.50
2019-03-31T07:59:23.710Z,11.70
2019-03-31T08:01:51.486Z,10.67
2019-03-31T08:04:19.262Z,11.70
2019-03-31T08:06:47.062Z,11.60
2019-03-31T08:09:14.854Z,11.53
2019-03-31T08:11:42.658Z,11.07
2019-03-31T08:14:10.463Z,12.50
2019-03-31T08:16:38.282Z,12.18
2019-03-31T08:19:06.066Z,12.23
2019-03-31T08:21:33.906Z,10.80
2019-03-31T08:24:01.691Z,11.70
2019-03-31T08:26:29.496Z,11.63
2019-03-31T08:28:58.658Z,11.70
2019-03-31T08:31:25.158Z,11.10
2019-03-31T08:33:52.938Z,12.43
2019-03-31T08:36:20.750Z,12.33
2019-03-31T08:38:48.543Z,11.47
2019-03-31T08:41:16.353Z,12.80
2019-03-31T08:43:44.175Z,12.43
2019-03-31T08:46:11.970Z,11.37
2019-03-31T08:48:39.745Z,12.63
2019-03-31T08:51:07.561Z,12.50
2019-03-31T08:53:35.417Z,12.97
2019-03-31T08:56:03.251Z,14.13
2019-03-31T08:58:31.133Z,13.80
2019-03-31T09:01:01.806Z,12.97
2019-03-31T09:03:29.634Z,13.77
2019-03-31T09:06:01.972Z,13.03
2019-03-31T09:08:25.262Z,13.53
2019-03-31T09:10:53.078Z,12.97
2019-03-31T09:13:20.854Z,13.70
2019-03-31T09:15:48.674Z,13.17
2019-03-31T09:18:16.451Z,13.37
2019-03-31T09:20:44.229Z,11.80
2019-03-31T09:23:12.034Z,11.70
2019-03-31T09:25:39.814Z,12.43
2019-03-31T09:28:07.623Z,12.20
2019-03-31T09:30:35.403Z,12.95
2019-03-31T09:33:03.326Z,12.60
2019-03-31T09:35:31.107Z,11.57
2019-03-31T09:37:58.916Z,12.93
2019-03-31T09:40:26.718Z,12.33
2019-03-31T09:42:54.605Z,11.60
2019-03-31T09:45:22.534Z,11.80
2019-03-31T09:47:50.350Z,12.30
2019-03-31T09:50:18.166Z,11.00
2019-03-31T09:52:45.967Z,12.43
2019-03-31T09:55:13.753Z,11.67
2019-03-31T09:57:41.550Z,11.47
2019-03-31T10:00:10.122Z,11.80
2019-03-31T10:02:38.457Z,11.40
2019-03-31T10:05:06.374Z,12.10
2019-03-31T10:07:34.210Z,11.70
2019-03-31T10:10:02.004Z,11.13
2019-03-31T10:12:29.906Z,11.50
2019-03-31T10:14:57.694Z,12.07
2019-03-31T10:17:25.509Z,11.83
2019-03-31T10:19:53.303Z,11.67
2019-03-31T10:22:21.098Z,12.30
2019-03-31T10:24:48.894Z,12.50
2019-03-31T10:27:16.703Z,13.20
2019-03-31T10:29:44.618Z,12.07
2019-03-31T10:32:12.406Z,12.50
2019-03-31T10:34:40.206Z,11.53
2019-03-31T10:37:08.010Z,10.70
2019-03-31T10:39:35.854Z,10.90
2019-03-31T10:42:03.673Z,12.30
2019-03-31T10:44:31.477Z,12.50
2019-03-31T10:46:59.686Z,12.73
2019-03-31T10:49:27.477Z,11.20
2019-03-31T10:51:55.598Z,11.90
2019-03-31T10:54:23.386Z,11.03
2019-03-31T10:56:51.182Z,11.33
2019-03-31T10:59:19.037Z,10.70
2019-03-31T11:01:46.918Z,12.15
2019-03-31T11:04:14.846Z,11.60
2019-03-31T11:06:42.653Z,12.97
2019-03-31T11:09:10.466Z,10.20
2019-03-31T11:11:38.268Z,11.33
2019-03-31T11:14:06.162Z,11.57
2019-03-31T11:16:33.969Z,10.63
2019-03-31T11:19:01.778Z,11.17
2019-03-31T11:21:34.267Z,11.00
2019-03-31T11:24:02.088Z,9.83
2019-03-31T11:26:29.881Z,8.50
2019-03-31T11:28:57.701Z,8.20
2019-03-31T11:31:25.501Z,8.03
2019-03-31T11:33:53.310Z,7.13
2019-03-31T11:36:21.109Z,6.37
2019-03-31T11:38:48.994Z,6.03
2019-03-31T11:41:16.871Z,5.37
2019-03-31T11:43:44.678Z,4.77
2019-03-31T11:46:12.469Z,5.97
2019-03-31T11:48:40.278Z,4.23
2019-03-31T11:51:08.085Z,5.20
2019-03-31T11:53:35.890Z,4.93
2019-03-31T11:56:03.682Z,4.67
2019-03-31T11:58:32.399Z,5.47
2019-03-31T12:00:59.277Z,6.10
2019-03-31T12:03:30.624Z,6.07
2019-03-31T12:05:54.969Z,5.80
2019-03-31T12:08:22.786Z,6.80
2019-03-31T12:10:50.561Z,7.40
2019-03-31T12:13:18.377Z,6.77
2019-03-31T12:15:46.193Z,5.63
2019-03-31T12:18:14.014Z,5.40
2019-03-31T12:20:41.801Z,5.95
2019-03-31T12:23:09.697Z,6.93
2019-03-31T12:25:37.487Z,7.50
2019-03-31T12:28:05.325Z,7.80
2019-03-31T12:30:33.099Z,6.60
2019-03-31T12:33:00.942Z,4.83
2019-03-31T12:35:28.733Z,4.45
2019-03-31T12:37:56.554Z,3.60
2019-03-31T12:40:29.929Z,4.00
2019-03-31T12:42:57.814Z,3.93
2019-03-31T12:45:25.614Z,3.90
2019-03-31T12:47:53.422Z,4.00
2019-03-31T12:50:21.207Z,4.20
2019-03-31T12:52:51.091Z,5.07
2019-03-31T12:55:16.835Z,4.40
2019-03-31T12:57:44.710Z,4.70
2019-03-31T13:00:12.512Z,4.20
2019-03-31T13:02:40.306Z,3.77
2019-03-31T13:05:08.103Z,4.22
2019-03-31T13:07:35.890Z,4.30
2019-03-31T13:10:03.762Z,4.30
2019-03-31T13:12:34.799Z,4.90
2019-03-31T13:14:59.366Z,4.70
2019-03-31T13:17:27.182Z,4.87
2019-03-31T13:19:54.994Z,4.27
2019-03-31T13:22:22.782Z,3.73
2019-03-31T13:24:50.610Z,3.80
2019-03-31T13:27:18.414Z,5.10
2019-03-31T13:29:46.240Z,4.63
2019-03-31T13:32:14.010Z,5.10
2019-03-31T13:34:41.814Z,4.37
2019-03-31T13:37:09.618Z,4.47
2019-03-31T13:39:37.434Z,4.70
2019-03-31T13:42:05.242Z,4.43
2019-03-31T13:44:33.042Z,5.23
2019-03-31T13:47:00.864Z,4.43
2019-03-31T13:49:28.630Z,5.20
2019-03-31T13:51:56.406Z,5.00
2019-03-31T13:54:24.205Z,4.20
2019-03-31T13:56:52.691Z,3.73
2019-03-31T13:59:19.814Z,4.37
2019-03-31T14:01:47.594Z,5.00
2019-03-31T14:04:15.401Z,4.47
2019-03-31T14:06:43.209Z,4.67
2019-03-31T14:09:10.999Z,5.00
2019-03-31T14:11:38.801Z,3.63
2019-03-31T14:14:06.635Z,3.90
2019-03-31T14:16:34.410Z,4.40
2019-03-31T14:19:02.222Z,3.60
2019-03-31T14:21:30.027Z,4.10
2019-03-31T14:23:57.841Z,4.20
2019-03-31T14:26:25.626Z,3.83
2019-03-31T14:28:53.445Z,4.60
2019-03-31T14:31:21.222Z,5.10
2019-03-31T14:33:49.017Z,5.73
2019-03-31T14:36:16.822Z,5.93
2019-03-31T14:38:44.634Z,4.93
2019-03-31T14:41:12.458Z,6.70
2019-03-31T14:43:40.254Z,8.30
2019-03-31T14:46:08.078Z,6.57
2019-03-31T14:48:35.883Z,6.90
2019-03-31T14:51:03.701Z,7.03
2019-03-31T14:53:31.490Z,7.03
2019-03-31T14:55:59.329Z,5.97
2019-03-31T14:58:27.111Z,4.77
2019-03-31T15:00:54.910Z,5.93
2019-03-31T15:03:22.722Z,5.37
2019-03-31T15:05:50.533Z,5.20
2019-03-31T15:08:18.343Z,5.77
2019-03-31T15:10:46.183Z,5.90
2019-03-31T15:13:13.982Z,4.83
2019-03-31T15:15:41.794Z,5.70
2019-03-31T15:18:09.601Z,5.00
2019-03-31T15:20:37.415Z,4.50
2019-03-31T15:23:05.210Z,4.40
2019-03-31T15:25:33.069Z,3.73
2019-03-31T15:28:01.071Z,3.80
2019-03-31T15:30:28.890Z,3.23
2019-03-31T15:32:56.698Z,3.70
2019-03-31T15:35:24.523Z,3.30
2019-03-31T15:37:52.386Z,3.30
2019-03-31T15:40:20.195Z,3.77
2019-03-31T15:42:47.980Z,4.33
2019-03-31T15:45:15.817Z,3.47
2019-03-31T15:47:43.646Z,3.33
2019-03-31T15:50:11.578Z,3.93
2019-03-31T15:52:40.200Z,3.50
2019-03-31T15:55:08.015Z,3.30
2019-03-31T15:57:35.851Z,3.30
2019-03-31T16:00:04.018Z,3.43
2019-03-31T16:02:31.806Z,3.43
2019-03-31T16:04:59.609Z,3.10
2019-03-31T16:07:27.438Z,3.20
2019-03-31T16:09:54.191Z,3.67
2019-03-31T16:12:20.951Z,3.20
2019-03-31T16:14:47.709Z,3.57
2019-03-31T16:17:14.493Z,3.23
2019-03-31T16:19:41.246Z,2.40
2019-03-31T16:22:08.022Z,2.60
2019-03-31T16:24:39.403Z,3.20
2019-03-31T16:27:06.154Z,2.93
2019-03-31T16:29:32.894Z,3.27
2019-03-31T16:31:59.688Z,3.17
2019-03-31T16:34:26.406Z,2.80
2019-03-31T16:36:53.275Z,2.83
2019-03-31T16:39:20.014Z,2.97
2019-03-31T16:41:46.778Z,3.50
2019-03-31T16:44:13.520Z,3.30
2019-03-31T16:46:40.327Z,3.53
2019-03-31T16:49:07.130Z,3.30
2019-03-31T16:51:33.890Z,3.10
2019-03-31T16:54:00.622Z,3.10
2019-03-31T16:56:27.406Z,3.67
2019-03-31T16:58:54.152Z,3.50
2019-03-31T17:01:20.894Z,3.50
2019-03-31T17:03:47.634Z,3.10
2019-03-31T17:06:14.394Z,3.13
2019-03-31T17:08:41.122Z,3.40
2019-03-31T17:11:07.875Z,3.00
2019-03-31T17:13:34.775Z,3.37
2019-03-31T17:16:01.526Z,2.97
2019-03-31T17:18:28.279Z,3.53
2019-03-31T17:20:55.046Z,3.20
2019-03-31T17:23:21.773Z,3.15
2019-03-31T17:25:48.888Z,2.77
2019-03-31T17:28:15.574Z,3.00
2019-03-31T17:30:42.321Z,3.12
2019-03-31T17:33:09.037Z,3.20
2019-03-31T17:35:35.801Z,3.57
2019-03-31T17:38:02.535Z,3.07
2019-03-31T17:40:29.286Z,3.00
2019-03-31T17:42:56.170Z,4.13
2019-03-31T17:45:22.950Z,3.60
2019-03-31T17:47:49.674Z,2.53
2019-03-31T17:50:16.481Z,2.73
2019-03-31T17:52:43.251Z,3.20
2019-03-31T17:55:09.990Z,3.40
2019-03-31T17:57:36.775Z,13.45
2019-03-31T18:00:04.844Z,21.37
2019-03-31T18:02:31.618Z,25.10
2019-03-31T18:04:58.358Z,24.03
2019-03-31T18:07:25.117Z,26.20
2019-03-31T18:09:51.850Z,25.47
2019-03-31T18:12:18.598Z,27.90
2019-03-31T18:14:45.322Z,29.10
2019-03-31T18:17:12.059Z,29.83
2019-03-31T18:19:38.796Z,29.70
2019-03-31T18:22:16.238Z,30.43
2019-03-31T18:24:32.361Z,31.83
2019-03-31T18:26:59.106Z,31.37
2019-03-31T18:29:25.846Z,30.20
2019-03-31T18:31:52.610Z,30.90
2019-03-31T18:34:19.334Z,32.63
2019-03-31T18:36:46.082Z,31.67
2019-03-31T18:39:12.822Z,32.20
2019-03-31T18:41:39.578Z,31.73
2019-03-31T18:44:06.316Z,32.50
2019-03-31T18:46:33.062Z,37.10
2019-03-31T18:48:59.803Z,33.37
2019-03-31T18:51:26.565Z,35.47
2019-03-31T18:53:59.175Z,37.78
2019-03-31T18:56:46.515Z,37.75
2019-03-31T18:59:24.673Z,34.20
2019-03-31T19:02:13.016Z,35.13
2019-03-31T19:04:56.739Z,33.83
2019-03-31T19:07:42.820Z,37.50
2019-03-31T19:10:24.811Z,35.00
2019-03-31T19:13:13.771Z,32.70
2019-03-31T19:15:54.411Z,32.70
2019-03-31T19:18:29.306Z,33.07
2019-03-31T19:21:10.904Z,31.30
2019-03-31T19:23:49.422Z,32.40
2019-03-31T19:26:48.385Z,31.83
2019-03-31T19:29:17.101Z,32.00
2019-03-31T19:31:48.530Z,31.27
2019-03-31T19:34:24.550Z,37.33
2019-03-31T19:36:56.979Z,29.97
2019-03-31T19:39:29.498Z,28.33
2019-03-31T19:42:05.323Z,30.57
2019-03-31T19:44:42.391Z,30.43
2019-03-31T19:47:21.539Z,30.10
2019-03-31T19:49:57.670Z,28.77
2019-03-31T19:52:48.838Z,30.67
2019-03-31T19:55:26.174Z,29.70
2019-03-31T19:57:58.683Z,29.33
2019-03-31T20:00:36.465Z,30.07
2019-03-31T20:03:09.115Z,30.70
2019-03-31T20:05:45.086Z,28.80
2019-03-31T20:08:31.446Z,27.67
2019-03-31T20:11:18.802Z,29.70
2019-03-31T20:13:55.477Z,28.60
2019-03-31T20:16:28.067Z,30.45
2019-03-31T20:19:14.427Z,28.37
2019-03-31T20:21:48.719Z,26.73
2019-03-31T20:24:26.266Z,25.50
2019-03-31T20:27:00.189Z,26.03
2019-03-31T20:29:34.097Z,27.40
2019-03-31T20:32:06.589Z,25.50
2019-03-31T20:34:46.338Z,25.40
2019-03-31T20:37:23.553Z,24.63
2019-03-31T20:40:07.043Z,21.03
2019-03-31T20:42:42.890Z,21.30
2019-03-31T20:45:09.651Z,21.60
2019-03-31T20:47:36.410Z,19.30
2019-03-31T20:50:04.038Z,19.47
2019-03-31T20:52:30.778Z,19.60
2019-03-31T20:54:57.504Z,18.97
2019-03-31T20:57:24.254Z,18.87
2019-03-31T20:59:51.092Z,20.37
2019-03-31T21:02:17.735Z,20.47
2019-03-31T21:04:44.474Z,18.33
2019-03-31T21:07:11.271Z,18.90
2019-03-31T21:09:44.938Z,18.93
2019-03-31T21:12:04.715Z,20.30
2019-03-31T21:14:31.454Z,19.00
2019-03-31T21:16:58.185Z,18.67
2019-03-31T21:19:24.937Z,18.17
2019-03-31T21:21:51.672Z,19.00
2019-03-31T21:24:18.426Z,18.47
2019-03-31T21:26:45.158Z,19.80
2019-03-31T21:29:11.909Z,17.40
2019-03-31T21:31:38.679Z,17.10
2019-03-31T21:34:05.430Z,17.50
2019-03-31T21:36:32.146Z,19.77
2019-03-31T21:38:58.899Z,17.30
2019-03-31T21:41:25.630Z,18.33
2019-03-31T21:43:52.382Z,17.30
2019-03-31T21:46:19.153Z,17.60
2019-03-31T21:48:45.898Z,20.10
2019-03-31T21:51:12.641Z,17.90
2019-03-31T21:53:39.394Z,16.57
2019-03-31T21:56:06.113Z,17.47
2019-03-31T21:58:32.906Z,16.63
2019-03-31T22:00:59.672Z,16.87
2019-03-31T22:03:26.426Z,16.90
2019-03-31T22:05:53.168Z,17.90
2019-03-31T22:08:19.922Z,17.23
2019-03-31T22:10:46.674Z,16.97
2019-03-31T22:13:13.413Z,16.03
2019-03-31T22:15:40.157Z,17.30
2019-03-31T22:18:06.890Z,16.53
2019-03-31T22:20:33.630Z,17.60
2019-03-31T22:23:00.362Z,15.90
2019-03-31T22:25:27.106Z,20.10
2019-03-31T22:27:53.826Z,16.57
2019-03-31T22:30:20.587Z,17.57
2019-03-31T22:32:47.323Z,20.00
2019-03-31T22:35:14.077Z,18.53
2019-03-31T22:37:40.807Z,17.80
2019-03-31T22:40:07.619Z,17.13
2019-03-31T22:42:34.355Z,16.60
2019-03-31T22:45:01.101Z,19.20
2019-03-31T22:47:27.830Z,18.03
2019-03-31T22:49:54.574Z,18.23
2019-03-31T22:52:21.306Z,17.10
2019-03-31T22:54:48.086Z,19.45
2019-03-31T22:57:14.818Z,19.48
2019-03-31T22:59:41.574Z,18.73
2019-03-31T23:02:08.330Z,17.70
2019-03-31T23:04:35.090Z,18.10
2019-03-31T23:07:01.817Z,17.30
2019-03-31T23:09:28.691Z,17.43
2019-03-31T23:11:55.414Z,19.30
2019-03-31T23:14:22.186Z,17.87
2019-03-31T23:16:48.913Z,18.40
2019-03-31T23:19:15.670Z,17.30
2019-03-31T23:21:42.413Z,20.12
2019-03-31T23:24:09.146Z,20.50
2019-03-31T23:26:35.874Z,20.20
2019-03-31T23:29:02.633Z,20.43
2019-03-31T23:31:29.354Z,18.87
2019-03-31T23:33:56.087Z,19.23
2019-03-31T23:36:22.849Z,19.67
2019-03-31T23:38:49.642Z,20.27
2019-03-31T23:41:16.420Z,20.30
2019-03-31T23:43:43.154Z,21.12
2019-03-31T23:46:09.904Z,18.93
2019-03-31T23:48:36.632Z,19.50
2019-03-31T23:51:03.378Z,18.60
2019-03-31T23:53:30.103Z,16.53
2019-03-31T23:55:56.858Z,17.83
2019-03-31T23:58:23.598Z,17.10
